sensor_id;sensor_type;location;lat;lon;timestamp;temperature;humidity
12885;DHT22;6510;51.362;7.370;2023-10-09T00:00:08;14.40;99.90
12885;DHT22;6510;51.362;7.370;2023-10-09T00:02:53;14.40;99.90
12885;DHT22;6510;51.362;7.370;2023-10-09T00:05:19;14.30;99.90
12885;DHT22;6510;51.362;7.370;2023-10-09T00:07:49;14.30;99.90
12885;DHT22;6510;51.362;7.370;2023-10-09T00:10:14;14.30;99.90
12885;DHT22;6510;51.362;7.370;2023-10-09T00:12:43;14.30;99.90
12885;DHT22;6510;51.362;7.370;2023-10-09T00:15:09;14.40;99.90
12885;DHT22;6510;51.362;7.370;2023-10-09T00:17:38;14.40;99.90
12885;DHT22;6510;51.362;7.370;2023-10-09T00:20:05;14.40;99.90
12885;DHT22;6510;51.362;7.370;2023-10-09T00:22:34;14.40;99.90
12885;DHT22;6510;51.362;7.370;2023-10-09T00:25:08;14.40;99.90
12885;DHT22;6510;51.362;7.370;2023-10-09T00:27:41;14.40;99.90
12885;DHT22;6510;51.362;7.370;2023-10-09T00:30:17;14.40;99.90
12885;DHT22;6510;51.362;7.370;2023-10-09T00:32:44;14.40;99.90
12885;DHT22;6510;51.362;7.370;2023-10-09T00:35:19;14.30;99.90
12885;DHT22;6510;51.362;7.370;2023-10-09T00:38:04;14.30;99.90
12885;DHT22;6510;51.362;7.370;2023-10-09T00:40:50;14.20;99.90
12885;DHT22;6510;51.362;7.370;2023-10-09T00:43:27;14.20;99.90
12885;DHT22;6510;51.362;7.370;2023-10-09T00:45:54;14.20;99.90
12885;DHT22;6510;51.362;7.370;2023-10-09T00:48:21;14.20;99.90
12885;DHT22;6510;51.362;7.370;2023-10-09T00:50:55;14.30;99.90
12885;DHT22;6510;51.362;7.370;2023-10-09T00:53:25;14.30;99.90
12885;DHT22;6510;51.362;7.370;2023-10-09T00:56:05;14.30;99.90
12885;DHT22;6510;51.362;7.370;2023-10-09T00:58:48;14.30;99.90
12885;DHT22;6510;51.362;7.370;2023-10-09T01:01:21;14.30;99.90
12885;DHT22;6510;51.362;7.370;2023-10-09T01:03:52;14.40;99.90
12885;DHT22;6510;51.362;7.370;2023-10-09T01:06:18;14.40;99.90
12885;DHT22;6510;51.362;7.370;2023-10-09T01:08:47;14.40;99.90
12885;DHT22;6510;51.362;7.370;2023-10-09T01:11:42;14.50;99.90
12885;DHT22;6510;51.362;7.370;2023-10-09T01:14:15;14.60;99.90
12885;DHT22;6510;51.362;7.370;2023-10-09T01:16:41;14.60;99.90
12885;DHT22;6510;51.362;7.370;2023-10-09T01:19:07;14.60;99.90
12885;DHT22;6510;51.362;7.370;2023-10-09T01:21:45;14.60;99.90
12885;DHT22;6510;51.362;7.370;2023-10-09T01:24:11;14.60;99.90
12885;DHT22;6510;51.362;7.370;2023-10-09T01:26:41;14.60;99.90
12885;DHT22;6510;51.362;7.370;2023-10-09T01:31:49;14.50;99.90
12885;DHT22;6510;51.362;7.370;2023-10-09T01:34:19;14.50;99.90
12885;DHT22;6510;51.362;7.370;2023-10-09T01:36:52;14.40;99.90
12885;DHT22;6510;51.362;7.370;2023-10-09T01:39:20;14.40;99.90
12885;DHT22;6510;51.362;7.370;2023-10-09T01:41:54;14.40;99.90
12885;DHT22;6510;51.362;7.370;2023-10-09T01:44:27;14.30;99.90
12885;DHT22;6510;51.362;7.370;2023-10-09T01:47:03;14.30;99.90
12885;DHT22;6510;51.362;7.370;2023-10-09T01:49:38;14.30;99.90
12885;DHT22;6510;51.362;7.370;2023-10-09T01:52:07;14.20;99.90
12885;DHT22;6510;51.362;7.370;2023-10-09T01:54:38;14.10;99.90
12885;DHT22;6510;51.362;7.370;2023-10-09T01:57:05;14.10;99.90
12885;DHT22;6510;51.362;7.370;2023-10-09T01:59:47;14.00;99.90
12885;DHT22;6510;51.362;7.370;2023-10-09T02:02:18;14.00;99.90
12885;DHT22;6510;51.362;7.370;2023-10-09T02:05:06;14.00;99.90
12885;DHT22;6510;51.362;7.370;2023-10-09T02:07:38;13.90;99.90
12885;DHT22;6510;51.362;7.370;2023-10-09T02:10:11;13.80;99.90
12885;DHT22;6510;51.362;7.370;2023-10-09T02:13:02;13.80;99.90
12885;DHT22;6510;51.362;7.370;2023-10-09T02:15:33;13.70;99.90
12885;DHT22;6510;51.362;7.370;2023-10-09T02:18:12;13.70;99.90
12885;DHT22;6510;51.362;7.370;2023-10-09T02:23:31;13.70;99.90
12885;DHT22;6510;51.362;7.370;2023-10-09T02:26:12;13.60;99.90
12885;DHT22;6510;51.362;7.370;2023-10-09T02:28:54;13.60;99.90
12885;DHT22;6510;51.362;7.370;2023-10-09T02:31:34;13.50;99.90
12885;DHT22;6510;51.362;7.370;2023-10-09T02:34:09;13.50;99.90
12885;DHT22;6510;51.362;7.370;2023-10-09T02:36:39;13.50;99.90
12885;DHT22;6510;51.362;7.370;2023-10-09T02:39:26;13.50;99.90
12885;DHT22;6510;51.362;7.370;2023-10-09T02:41:55;13.60;99.90
12885;DHT22;6510;51.362;7.370;2023-10-09T02:44:44;13.60;99.90
12885;DHT22;6510;51.362;7.370;2023-10-09T02:47:16;13.60;99.90
12885;DHT22;6510;51.362;7.370;2023-10-09T02:50:05;13.60;99.90
12885;DHT22;6510;51.362;7.370;2023-10-09T02:52:45;13.60;99.90
12885;DHT22;6510;51.362;7.370;2023-10-09T02:55:13;13.60;99.90
12885;DHT22;6510;51.362;7.370;2023-10-09T02:57:55;13.70;99.90
12885;DHT22;6510;51.362;7.370;2023-10-09T03:00:39;13.60;99.90
12885;DHT22;6510;51.362;7.370;2023-10-09T03:03:05;13.60;99.90
12885;DHT22;6510;51.362;7.370;2023-10-09T03:05:34;13.70;99.90
12885;DHT22;6510;51.362;7.370;2023-10-09T03:08:00;13.70;99.90
12885;DHT22;6510;51.362;7.370;2023-10-09T03:10:27;13.70;99.90
12885;DHT22;6510;51.362;7.370;2023-10-09T03:12:53;13.80;99.90
12885;DHT22;6510;51.362;7.370;2023-10-09T03:15:22;13.80;99.90
12885;DHT22;6510;51.362;7.370;2023-10-09T03:17:48;13.90;99.90
12885;DHT22;6510;51.362;7.370;2023-10-09T03:20:14;13.90;99.90
12885;DHT22;6510;51.362;7.370;2023-10-09T03:22:44;13.90;99.90
12885;DHT22;6510;51.362;7.370;2023-10-09T03:25:10;13.90;99.90
12885;DHT22;6510;51.362;7.370;2023-10-09T03:27:43;14.00;99.90
12885;DHT22;6510;51.362;7.370;2023-10-09T03:30:15;14.00;99.90
12885;DHT22;6510;51.362;7.370;2023-10-09T03:32:45;14.00;99.90
12885;DHT22;6510;51.362;7.370;2023-10-09T03:35:20;14.00;99.90
12885;DHT22;6510;51.362;7.370;2023-10-09T03:37:59;14.00;99.90
12885;DHT22;6510;51.362;7.370;2023-10-09T03:40:27;14.00;99.90
12885;DHT22;6510;51.362;7.370;2023-10-09T03:42:53;14.10;99.90
12885;DHT22;6510;51.362;7.370;2023-10-09T03:45:20;14.10;99.90
12885;DHT22;6510;51.362;7.370;2023-10-09T03:47:53;14.10;99.90
12885;DHT22;6510;51.362;7.370;2023-10-09T03:50:23;14.10;99.90
12885;DHT22;6510;51.362;7.370;2023-10-09T03:52:53;14.10;99.90
12885;DHT22;6510;51.362;7.370;2023-10-09T03:55:20;14.10;99.90
12885;DHT22;6510;51.362;7.370;2023-10-09T03:57:47;14.20;99.90
12885;DHT22;6510;51.362;7.370;2023-10-09T04:00:13;14.20;99.90
12885;DHT22;6510;51.362;7.370;2023-10-09T04:02:54;14.20;99.90
12885;DHT22;6510;51.362;7.370;2023-10-09T04:05:19;14.20;99.90
12885;DHT22;6510;51.362;7.370;2023-10-09T04:07:45;14.20;99.90
12885;DHT22;6510;51.362;7.370;2023-10-09T04:10:11;14.20;99.90
12885;DHT22;6510;51.362;7.370;2023-10-09T04:12:59;14.20;99.90
12885;DHT22;6510;51.362;7.370;2023-10-09T04:15:26;14.20;99.90
12885;DHT22;6510;51.362;7.370;2023-10-09T04:17:55;14.20;99.90
12885;DHT22;6510;51.362;7.370;2023-10-09T04:20:22;14.20;99.90
12885;DHT22;6510;51.362;7.370;2023-10-09T04:22:48;14.30;99.90
12885;DHT22;6510;51.362;7.370;2023-10-09T04:25:20;14.30;99.90
12885;DHT22;6510;51.362;7.370;2023-10-09T04:27:56;14.20;99.90
12885;DHT22;6510;51.362;7.370;2023-10-09T04:30:45;14.30;99.90
12885;DHT22;6510;51.362;7.370;2023-10-09T04:33:22;14.30;99.90
12885;DHT22;6510;51.362;7.370;2023-10-09T04:36:05;14.40;99.90
12885;DHT22;6510;51.362;7.370;2023-10-09T04:38:51;14.40;99.90
12885;DHT22;6510;51.362;7.370;2023-10-09T04:41:32;14.40;99.90
12885;DHT22;6510;51.362;7.370;2023-10-09T04:43:59;14.40;99.90
12885;DHT22;6510;51.362;7.370;2023-10-09T04:46:44;14.40;99.90
12885;DHT22;6510;51.362;7.370;2023-10-09T04:49:10;14.40;99.90
12885;DHT22;6510;51.362;7.370;2023-10-09T04:51:54;14.50;99.90
12885;DHT22;6510;51.362;7.370;2023-10-09T04:54:46;14.50;99.90
12885;DHT22;6510;51.362;7.370;2023-10-09T04:57:30;14.50;99.90
12885;DHT22;6510;51.362;7.370;2023-10-09T05:00:04;14.50;99.90
12885;DHT22;6510;51.362;7.370;2023-10-09T05:02:32;14.50;99.90
12885;DHT22;6510;51.362;7.370;2023-10-09T05:05:02;14.60;99.90
12885;DHT22;6510;51.362;7.370;2023-10-09T05:07:51;14.60;99.90
12885;DHT22;6510;51.362;7.370;2023-10-09T05:10:22;14.60;99.90
12885;DHT22;6510;51.362;7.370;2023-10-09T05:12:51;14.60;99.90
12885;DHT22;6510;51.362;7.370;2023-10-09T05:15:23;14.60;99.90
12885;DHT22;6510;51.362;7.370;2023-10-09T05:17:54;14.60;99.90
12885;DHT22;6510;51.362;7.370;2023-10-09T05:20:23;14.60;99.90
12885;DHT22;6510;51.362;7.370;2023-10-09T05:22:49;14.60;99.90
12885;DHT22;6510;51.362;7.370;2023-10-09T05:25:27;14.60;99.90
12885;DHT22;6510;51.362;7.370;2023-10-09T05:28:15;14.60;99.90
12885;DHT22;6510;51.362;7.370;2023-10-09T05:30:51;14.60;99.90
12885;DHT22;6510;51.362;7.370;2023-10-09T05:33:29;14.60;99.90
12885;DHT22;6510;51.362;7.370;2023-10-09T05:35:54;14.70;99.90
12885;DHT22;6510;51.362;7.370;2023-10-09T05:38:38;14.70;99.90
12885;DHT22;6510;51.362;7.370;2023-10-09T05:41:12;14.70;99.90
12885;DHT22;6510;51.362;7.370;2023-10-09T05:44:04;14.70;99.90
12885;DHT22;6510;51.362;7.370;2023-10-09T05:47:01;14.70;99.90
12885;DHT22;6510;51.362;7.370;2023-10-09T05:49:45;14.70;99.90
12885;DHT22;6510;51.362;7.370;2023-10-09T05:52:29;14.80;99.90
12885;DHT22;6510;51.362;7.370;2023-10-09T05:54:58;14.80;99.90
12885;DHT22;6510;51.362;7.370;2023-10-09T05:57:42;14.80;99.90
12885;DHT22;6510;51.362;7.370;2023-10-09T06:00:26;14.70;99.90
12885;DHT22;6510;51.362;7.370;2023-10-09T06:03:11;14.80;99.90
12885;DHT22;6510;51.362;7.370;2023-10-09T06:05:50;14.80;99.90
12885;DHT22;6510;51.362;7.370;2023-10-09T06:08:25;14.80;99.90
12885;DHT22;6510;51.362;7.370;2023-10-09T06:11:10;14.80;99.90
12885;DHT22;6510;51.362;7.370;2023-10-09T06:13:56;14.80;99.90
12885;DHT22;6510;51.362;7.370;2023-10-09T06:16:38;14.80;99.90
12885;DHT22;6510;51.362;7.370;2023-10-09T06:19:08;14.90;99.90
12885;DHT22;6510;51.362;7.370;2023-10-09T06:21:41;14.80;99.90
12885;DHT22;6510;51.362;7.370;2023-10-09T06:24:07;14.90;99.90
12885;DHT22;6510;51.362;7.370;2023-10-09T06:26:43;14.80;99.90
12885;DHT22;6510;51.362;7.370;2023-10-09T06:29:25;14.80;99.90
12885;DHT22;6510;51.362;7.370;2023-10-09T06:32:23;14.80;99.90
12885;DHT22;6510;51.362;7.370;2023-10-09T06:34:53;14.90;99.90
12885;DHT22;6510;51.362;7.370;2023-10-09T06:37:39;14.90;99.90
12885;DHT22;6510;51.362;7.370;2023-10-09T06:40:24;15.00;99.90
12885;DHT22;6510;51.362;7.370;2023-10-09T06:43:03;15.10;99.90
12885;DHT22;6510;51.362;7.370;2023-10-09T06:45:56;15.20;99.90
12885;DHT22;6510;51.362;7.370;2023-10-09T06:48:40;15.20;99.90
12885;DHT22;6510;51.362;7.370;2023-10-09T06:51:10;15.20;99.90
12885;DHT22;6510;51.362;7.370;2023-10-09T06:53:52;15.30;99.90
12885;DHT22;6510;51.362;7.370;2023-10-09T06:56:24;15.30;99.90
12885;DHT22;6510;51.362;7.370;2023-10-09T06:59:04;15.30;99.90
12885;DHT22;6510;51.362;7.370;2023-10-09T07:01:40;15.30;99.90
12885;DHT22;6510;51.362;7.370;2023-10-09T07:04:09;15.40;99.90
12885;DHT22;6510;51.362;7.370;2023-10-09T07:06:48;15.50;99.90
12885;DHT22;6510;51.362;7.370;2023-10-09T07:09:14;15.50;99.90
12885;DHT22;6510;51.362;7.370;2023-10-09T07:11:41;15.60;99.90
12885;DHT22;6510;51.362;7.370;2023-10-09T07:14:15;15.60;99.90
12885;DHT22;6510;51.362;7.370;2023-10-09T07:19:26;15.40;99.90
12885;DHT22;6510;51.362;7.370;2023-10-09T07:21:57;15.50;99.90
12885;DHT22;6510;51.362;7.370;2023-10-09T07:24:29;15.60;99.90
12885;DHT22;6510;51.362;7.370;2023-10-09T07:27:08;15.80;99.90
12885;DHT22;6510;51.362;7.370;2023-10-09T07:29:35;15.90;99.90
12885;DHT22;6510;51.362;7.370;2023-10-09T07:32:13;16.00;99.90
12885;DHT22;6510;51.362;7.370;2023-10-09T07:34:46;16.10;99.90
12885;DHT22;6510;51.362;7.370;2023-10-09T07:37:27;16.10;99.90
12885;DHT22;6510;51.362;7.370;2023-10-09T07:40:04;16.00;99.90
12885;DHT22;6510;51.362;7.370;2023-10-09T07:42:33;16.00;99.90
12885;DHT22;6510;51.362;7.370;2023-10-09T07:45:19;16.00;99.90
12885;DHT22;6510;51.362;7.370;2023-10-09T07:47:49;16.20;99.90
12885;DHT22;6510;51.362;7.370;2023-10-09T07:50:38;16.50;99.90
12885;DHT22;6510;51.362;7.370;2023-10-09T07:53:09;16.70;99.90
12885;DHT22;6510;51.362;7.370;2023-10-09T07:55:46;16.90;99.90
12885;DHT22;6510;51.362;7.370;2023-10-09T07:58:25;17.20;99.90
12885;DHT22;6510;51.362;7.370;2023-10-09T08:01:00;17.20;99.90
12885;DHT22;6510;51.362;7.370;2023-10-09T08:03:32;17.00;99.90
12885;DHT22;6510;51.362;7.370;2023-10-09T08:06:00;16.90;99.90
12885;DHT22;6510;51.362;7.370;2023-10-09T08:08:44;16.90;99.90
12885;DHT22;6510;51.362;7.370;2023-10-09T08:11:29;17.00;99.90
12885;DHT22;6510;51.362;7.370;2023-10-09T08:14:20;17.10;99.90
12885;DHT22;6510;51.362;7.370;2023-10-09T08:16:58;16.70;99.90
12885;DHT22;6510;51.362;7.370;2023-10-09T08:19:49;16.60;99.90
12885;DHT22;6510;51.362;7.370;2023-10-09T08:22:36;16.40;99.90
12885;DHT22;6510;51.362;7.370;2023-10-09T08:25:18;16.50;99.90
12885;DHT22;6510;51.362;7.370;2023-10-09T08:28:02;16.70;99.90
12885;DHT22;6510;51.362;7.370;2023-10-09T08:30:41;16.80;99.90
12885;DHT22;6510;51.362;7.370;2023-10-09T08:33:14;16.90;99.90
12885;DHT22;6510;51.362;7.370;2023-10-09T08:35:55;16.90;99.90
12885;DHT22;6510;51.362;7.370;2023-10-09T08:38:27;17.00;99.90
12885;DHT22;6510;51.362;7.370;2023-10-09T08:41:09;17.10;99.90
12885;DHT22;6510;51.362;7.370;2023-10-09T08:43:48;17.20;99.90
12885;DHT22;6510;51.362;7.370;2023-10-09T08:46:25;17.20;99.90
12885;DHT22;6510;51.362;7.370;2023-10-09T08:48:55;17.20;99.90
12885;DHT22;6510;51.362;7.370;2023-10-09T08:51:24;17.10;99.90
12885;DHT22;6510;51.362;7.370;2023-10-09T08:53:50;17.10;99.90
12885;DHT22;6510;51.362;7.370;2023-10-09T08:56:17;16.90;99.90
12885;DHT22;6510;51.362;7.370;2023-10-09T08:58:56;16.70;99.90
12885;DHT22;6510;51.362;7.370;2023-10-09T09:01:22;16.60;99.90
12885;DHT22;6510;51.362;7.370;2023-10-09T09:03:50;16.30;99.90
12885;DHT22;6510;51.362;7.370;2023-10-09T09:06:19;16.20;99.90
12885;DHT22;6510;51.362;7.370;2023-10-09T09:08:46;16.10;99.90
12885;DHT22;6510;51.362;7.370;2023-10-09T09:11:16;16.10;99.90
12885;DHT22;6510;51.362;7.370;2023-10-09T09:16:32;16.00;99.90
12885;DHT22;6510;51.362;7.370;2023-10-09T09:19:02;16.10;99.90
12885;DHT22;6510;51.362;7.370;2023-10-09T09:21:56;16.30;99.90
12885;DHT22;6510;51.362;7.370;2023-10-09T09:24:25;16.50;99.90
12885;DHT22;6510;51.362;7.370;2023-10-09T09:26:54;17.00;99.90
12885;DHT22;6510;51.362;7.370;2023-10-09T09:35:02;17.90;99.90
12885;DHT22;6510;51.362;7.370;2023-10-09T09:37:31;18.40;99.90
12885;DHT22;6510;51.362;7.370;2023-10-09T09:40:16;18.70;99.90
12885;DHT22;6510;51.362;7.370;2023-10-09T09:42:58;19.30;99.90
12885;DHT22;6510;51.362;7.370;2023-10-09T09:45:38;20.20;99.90
12885;DHT22;6510;51.362;7.370;2023-10-09T09:48:07;20.70;99.90
12885;DHT22;6510;51.362;7.370;2023-10-09T09:50:40;20.50;99.90
12885;DHT22;6510;51.362;7.370;2023-10-09T09:53:15;20.80;99.90
12885;DHT22;6510;51.362;7.370;2023-10-09T09:55:54;20.20;99.90
12885;DHT22;6510;51.362;7.370;2023-10-09T09:58:26;20.10;99.90
12885;DHT22;6510;51.362;7.370;2023-10-09T10:01:04;20.00;99.90
12885;DHT22;6510;51.362;7.370;2023-10-09T10:03:47;19.60;99.90
12885;DHT22;6510;51.362;7.370;2023-10-09T10:06:13;19.30;99.90
12885;DHT22;6510;51.362;7.370;2023-10-09T10:08:43;19.40;99.90
12885;DHT22;6510;51.362;7.370;2023-10-09T10:11:41;19.50;99.90
12885;DHT22;6510;51.362;7.370;2023-10-09T10:14:07;19.50;99.90
12885;DHT22;6510;51.362;7.370;2023-10-09T10:17:06;19.70;99.90
12885;DHT22;6510;51.362;7.370;2023-10-09T10:20:04;20.20;99.90
12885;DHT22;6510;51.362;7.370;2023-10-09T10:22:43;20.20;99.90
12885;DHT22;6510;51.362;7.370;2023-10-09T10:28:23;21.70;99.90
12885;DHT22;6510;51.362;7.370;2023-10-09T10:31:08;21.20;99.90
12885;DHT22;6510;51.362;7.370;2023-10-09T10:36:23;21.00;99.90
12885;DHT22;6510;51.362;7.370;2023-10-09T10:39:03;20.60;99.90
12885;DHT22;6510;51.362;7.370;2023-10-09T10:41:58;20.40;99.90
12885;DHT22;6510;51.362;7.370;2023-10-09T10:44:31;20.60;99.90
12885;DHT22;6510;51.362;7.370;2023-10-09T10:47:07;19.90;99.90
12885;DHT22;6510;51.362;7.370;2023-10-09T10:49:51;19.50;99.90
12885;DHT22;6510;51.362;7.370;2023-10-09T10:52:26;19.90;99.90
12885;DHT22;6510;51.362;7.370;2023-10-09T10:55:12;19.90;99.90
12885;DHT22;6510;51.362;7.370;2023-10-09T10:57:56;19.40;99.90
12885;DHT22;6510;51.362;7.370;2023-10-09T11:00:30;20.20;99.90
12885;DHT22;6510;51.362;7.370;2023-10-09T11:03:21;20.70;99.90
12885;DHT22;6510;51.362;7.370;2023-10-09T11:06:02;20.10;99.90
12885;DHT22;6510;51.362;7.370;2023-10-09T11:08:47;20.10;99.90
12885;DHT22;6510;51.362;7.370;2023-10-09T11:11:34;20.70;99.90
12885;DHT22;6510;51.362;7.370;2023-10-09T11:14:10;21.10;99.90
12885;DHT22;6510;51.362;7.370;2023-10-09T11:16:40;22.10;99.90
12885;DHT22;6510;51.362;7.370;2023-10-09T11:19:14;22.80;99.90
12885;DHT22;6510;51.362;7.370;2023-10-09T11:21:54;22.40;99.90
12885;DHT22;6510;51.362;7.370;2023-10-09T11:24:35;22.10;99.90
12885;DHT22;6510;51.362;7.370;2023-10-09T11:27:05;22.10;99.90
12885;DHT22;6510;51.362;7.370;2023-10-09T11:29:35;22.40;99.90
12885;DHT22;6510;51.362;7.370;2023-10-09T11:32:18;21.90;99.90
12885;DHT22;6510;51.362;7.370;2023-10-09T11:34:48;21.60;99.90
12885;DHT22;6510;51.362;7.370;2023-10-09T11:37:21;21.40;99.90
12885;DHT22;6510;51.362;7.370;2023-10-09T11:39:59;20.70;99.90
12885;DHT22;6510;51.362;7.370;2023-10-09T11:42:29;21.10;99.90
12885;DHT22;6510;51.362;7.370;2023-10-09T11:45:25;20.80;99.90
12885;DHT22;6510;51.362;7.370;2023-10-09T11:47:58;20.60;99.90
12885;DHT22;6510;51.362;7.370;2023-10-09T11:50:47;20.80;99.90
12885;DHT22;6510;51.362;7.370;2023-10-09T11:53:42;20.70;99.90
12885;DHT22;6510;51.362;7.370;2023-10-09T11:56:09;21.50;99.90
12885;DHT22;6510;51.362;7.370;2023-10-09T11:58:42;21.50;99.90
12885;DHT22;6510;51.362;7.370;2023-10-09T12:01:14;21.70;99.90
12885;DHT22;6510;51.362;7.370;2023-10-09T12:03:43;21.50;99.90
12885;DHT22;6510;51.362;7.370;2023-10-09T12:06:09;21.20;99.90
12885;DHT22;6510;51.362;7.370;2023-10-09T12:08:39;20.90;99.90
12885;DHT22;6510;51.362;7.370;2023-10-09T12:11:08;21.30;99.90
12885;DHT22;6510;51.362;7.370;2023-10-09T12:13:35;21.90;99.90
12885;DHT22;6510;51.362;7.370;2023-10-09T12:16:04;21.80;99.90
12885;DHT22;6510;51.362;7.370;2023-10-09T12:18:33;21.50;99.90
12885;DHT22;6510;51.362;7.370;2023-10-09T12:21:00;21.70;99.90
12885;DHT22;6510;51.362;7.370;2023-10-09T12:23:30;21.90;99.90
12885;DHT22;6510;51.362;7.370;2023-10-09T12:26:01;21.00;99.90
12885;DHT22;6510;51.362;7.370;2023-10-09T12:28:27;21.00;99.90
12885;DHT22;6510;51.362;7.370;2023-10-09T12:30:53;20.90;99.90
12885;DHT22;6510;51.362;7.370;2023-10-09T12:33:20;21.50;99.90
12885;DHT22;6510;51.362;7.370;2023-10-09T12:35:53;21.70;99.90
12885;DHT22;6510;51.362;7.370;2023-10-09T12:38:28;22.10;99.90
12885;DHT22;6510;51.362;7.370;2023-10-09T12:41:07;22.50;99.90
12885;DHT22;6510;51.362;7.370;2023-10-09T12:43:49;22.50;99.90
12885;DHT22;6510;51.362;7.370;2023-10-09T12:46:14;22.10;99.90
12885;DHT22;6510;51.362;7.370;2023-10-09T12:48:44;22.10;99.90
12885;DHT22;6510;51.362;7.370;2023-10-09T12:51:13;22.00;99.90
12885;DHT22;6510;51.362;7.370;2023-10-09T12:53:42;22.40;99.90
12885;DHT22;6510;51.362;7.370;2023-10-09T12:56:08;22.50;99.90
12885;DHT22;6510;51.362;7.370;2023-10-09T12:58:35;22.20;99.90
12885;DHT22;6510;51.362;7.370;2023-10-09T13:01:04;22.00;99.90
12885;DHT22;6510;51.362;7.370;2023-10-09T13:03:38;21.80;99.90
12885;DHT22;6510;51.362;7.370;2023-10-09T13:06:06;21.40;99.90
12885;DHT22;6510;51.362;7.370;2023-10-09T13:08:36;21.00;99.90
12885;DHT22;6510;51.362;7.370;2023-10-09T13:11:07;21.10;99.90
12885;DHT22;6510;51.362;7.370;2023-10-09T13:13:40;21.10;99.90
12885;DHT22;6510;51.362;7.370;2023-10-09T13:16:07;20.50;99.90
12885;DHT22;6510;51.362;7.370;2023-10-09T13:18:34;20.40;99.90
12885;DHT22;6510;51.362;7.370;2023-10-09T13:21:00;20.70;99.90
12885;DHT22;6510;51.362;7.370;2023-10-09T13:23:30;21.10;99.90
12885;DHT22;6510;51.362;7.370;2023-10-09T13:26:04;20.90;99.90
12885;DHT22;6510;51.362;7.370;2023-10-09T13:28:44;20.70;99.90
12885;DHT22;6510;51.362;7.370;2023-10-09T13:31:11;21.00;99.90
12885;DHT22;6510;51.362;7.370;2023-10-09T13:33:40;21.40;99.90
12885;DHT22;6510;51.362;7.370;2023-10-09T13:36:06;21.30;99.90
12885;DHT22;6510;51.362;7.370;2023-10-09T13:38:42;21.70;99.90
12885;DHT22;6510;51.362;7.370;2023-10-09T13:41:11;22.70;99.90
12885;DHT22;6510;51.362;7.370;2023-10-09T13:43:40;24.10;99.90
12885;DHT22;6510;51.362;7.370;2023-10-09T13:46:15;24.60;99.90
12885;DHT22;6510;51.362;7.370;2023-10-09T13:48:43;25.30;99.90
12885;DHT22;6510;51.362;7.370;2023-10-09T13:51:11;26.30;99.50
12885;DHT22;6510;51.362;7.370;2023-10-09T13:53:43;25.90;98.10
12885;DHT22;6510;51.362;7.370;2023-10-09T13:56:17;26.00;96.40
12885;DHT22;6510;51.362;7.370;2023-10-09T13:58:49;25.10;98.80
12885;DHT22;6510;51.362;7.370;2023-10-09T14:01:20;24.50;99.90
12885;DHT22;6510;51.362;7.370;2023-10-09T14:03:59;23.70;99.90
12885;DHT22;6510;51.362;7.370;2023-10-09T14:06:26;22.80;99.90
12885;DHT22;6510;51.362;7.370;2023-10-09T14:09:03;22.30;99.90
12885;DHT22;6510;51.362;7.370;2023-10-09T14:11:30;21.90;99.90
12885;DHT22;6510;51.362;7.370;2023-10-09T14:13:55;21.50;99.90
12885;DHT22;6510;51.362;7.370;2023-10-09T14:16:21;21.10;99.90
12885;DHT22;6510;51.362;7.370;2023-10-09T14:18:56;20.30;99.90
12885;DHT22;6510;51.362;7.370;2023-10-09T14:21:29;19.90;99.90
12885;DHT22;6510;51.362;7.370;2023-10-09T14:23:58;19.90;99.90
12885;DHT22;6510;51.362;7.370;2023-10-09T14:26:26;20.00;99.90
12885;DHT22;6510;51.362;7.370;2023-10-09T14:28:53;20.10;99.90
12885;DHT22;6510;51.362;7.370;2023-10-09T14:31:25;20.30;99.90
12885;DHT22;6510;51.362;7.370;2023-10-09T14:33:56;20.10;99.90
12885;DHT22;6510;51.362;7.370;2023-10-09T14:36:23;19.80;99.90
12885;DHT22;6510;51.362;7.370;2023-10-09T14:38:50;19.70;99.90
12885;DHT22;6510;51.362;7.370;2023-10-09T14:41:22;19.40;99.90
12885;DHT22;6510;51.362;7.370;2023-10-09T14:43:51;19.40;99.90
12885;DHT22;6510;51.362;7.370;2023-10-09T14:46:18;19.30;99.90
12885;DHT22;6510;51.362;7.370;2023-10-09T14:48:52;19.20;99.90
12885;DHT22;6510;51.362;7.370;2023-10-09T14:51:23;19.10;99.90
12885;DHT22;6510;51.362;7.370;2023-10-09T14:53:58;19.10;99.90
12885;DHT22;6510;51.362;7.370;2023-10-09T14:56:30;19.10;99.90
12885;DHT22;6510;51.362;7.370;2023-10-09T14:58:57;19.10;99.90
12885;DHT22;6510;51.362;7.370;2023-10-09T15:01:28;19.10;99.90
12885;DHT22;6510;51.362;7.370;2023-10-09T15:04:00;19.20;99.90
12885;DHT22;6510;51.362;7.370;2023-10-09T15:06:29;19.00;99.90
12885;DHT22;6510;51.362;7.370;2023-10-09T15:08:59;19.00;99.90
12885;DHT22;6510;51.362;7.370;2023-10-09T15:11:34;19.00;99.90
12885;DHT22;6510;51.362;7.370;2023-10-09T15:13:59;18.90;99.90
12885;DHT22;6510;51.362;7.370;2023-10-09T15:16:26;18.90;99.90
12885;DHT22;6510;51.362;7.370;2023-10-09T15:18:55;18.90;99.90
12885;DHT22;6510;51.362;7.370;2023-10-09T15:21:23;19.00;99.90
12885;DHT22;6510;51.362;7.370;2023-10-09T15:23:55;19.00;99.90
12885;DHT22;6510;51.362;7.370;2023-10-09T15:26:21;19.00;99.90
12885;DHT22;6510;51.362;7.370;2023-10-09T15:28:50;18.90;99.90
12885;DHT22;6510;51.362;7.370;2023-10-09T15:31:16;18.90;99.90
12885;DHT22;6510;51.362;7.370;2023-10-09T15:33:42;18.80;99.90
12885;DHT22;6510;51.362;7.370;2023-10-09T15:36:12;18.60;99.90
12885;DHT22;6510;51.362;7.370;2023-10-09T15:38:38;18.50;99.90
12885;DHT22;6510;51.362;7.370;2023-10-09T15:41:05;18.50;99.90
12885;DHT22;6510;51.362;7.370;2023-10-09T15:43:37;18.50;99.90
12885;DHT22;6510;51.362;7.370;2023-10-09T15:46:04;18.40;99.90
12885;DHT22;6510;51.362;7.370;2023-10-09T15:48:35;18.50;99.90
12885;DHT22;6510;51.362;7.370;2023-10-09T15:51:02;18.40;99.90
12885;DHT22;6510;51.362;7.370;2023-10-09T15:53:28;18.50;99.90
12885;DHT22;6510;51.362;7.370;2023-10-09T15:55:54;18.40;99.90
12885;DHT22;6510;51.362;7.370;2023-10-09T15:58:23;18.40;99.90
12885;DHT22;6510;51.362;7.370;2023-10-09T16:00:49;18.40;99.90
12885;DHT22;6510;51.362;7.370;2023-10-09T16:03:15;18.40;99.90
12885;DHT22;6510;51.362;7.370;2023-10-09T16:05:41;18.40;99.90
12885;DHT22;6510;51.362;7.370;2023-10-09T16:08:07;18.40;99.90
12885;DHT22;6510;51.362;7.370;2023-10-09T16:10:33;18.40;99.90
12885;DHT22;6510;51.362;7.370;2023-10-09T16:13:00;18.40;99.90
12885;DHT22;6510;51.362;7.370;2023-10-09T16:15:27;18.30;99.90
12885;DHT22;6510;51.362;7.370;2023-10-09T16:17:53;18.30;99.90
12885;DHT22;6510;51.362;7.370;2023-10-09T16:20:27;18.30;99.90
12885;DHT22;6510;51.362;7.370;2023-10-09T16:22:52;18.30;99.90
12885;DHT22;6510;51.362;7.370;2023-10-09T16:25:18;18.30;99.90
12885;DHT22;6510;51.362;7.370;2023-10-09T16:27:49;18.30;99.90
12885;DHT22;6510;51.362;7.370;2023-10-09T16:30:17;18.20;99.90
12885;DHT22;6510;51.362;7.370;2023-10-09T16:32:49;18.10;99.90
12885;DHT22;6510;51.362;7.370;2023-10-09T16:35:16;18.00;99.90
12885;DHT22;6510;51.362;7.370;2023-10-09T16:37:42;18.00;99.90
12885;DHT22;6510;51.362;7.370;2023-10-09T16:40:08;17.90;99.90
12885;DHT22;6510;51.362;7.370;2023-10-09T16:42:38;17.90;99.90
12885;DHT22;6510;51.362;7.370;2023-10-09T16:45:06;17.90;99.90
12885;DHT22;6510;51.362;7.370;2023-10-09T16:47:38;17.80;99.90